sensor_id;sensor_type;location;lat;lon;timestamp;pressure;altitude;pressure_sealevel;temperature;humidity
6851;BME280;3464;42.728;23.296;2023-05-08T00:02:23;95410.56;;;18.27;55.61
6851;BME280;3464;42.728;23.296;2023-05-08T00:04:49;95413.17;;;18.25;55.43
6851;BME280;3464;42.728;23.296;2023-05-08T00:07:16;95415.80;;;18.43;54.93
6851;BME280;3464;42.728;23.296;2023-05-08T00:09:42;95407.77;;;18.43;54.98
6851;BME280;3464;42.728;23.296;2023-05-08T00:12:09;95410.40;;;18.39;55.19
6851;BME280;3464;42.728;23.296;2023-05-08T00:14:36;95402.20;;;18.21;55.48
6851;BME280;3464;42.728;23.296;2023-05-08T00:17:02;95412.45;;;18.17;55.69
6851;BME280;3464;42.728;23.296;2023-05-08T00:19:29;95407.23;;;18.01;56.17
6851;BME280;3464;42.728;23.296;2023-05-08T00:21:56;95408.05;;;18.03;56.36
6851;BME280;3464;42.728;23.296;2023-05-08T00:24:23;95408.20;;;18.18;55.87
6851;BME280;3464;42.728;23.296;2023-05-08T00:26:51;95417.28;;;18.09;56.17
6851;BME280;3464;42.728;23.296;2023-05-08T00:29:18;95424.23;;;18.23;55.50
6851;BME280;3464;42.728;23.296;2023-05-08T00:31:44;95422.19;;;18.18;55.77
6851;BME280;3464;42.728;23.296;2023-05-08T00:34:11;95422.46;;;18.05;56.15
6851;BME280;3464;42.728;23.296;2023-05-08T00:36:39;95423.13;;;18.14;55.98
6851;BME280;3464;42.728;23.296;2023-05-08T00:39:06;95418.64;;;18.04;56.30
6851;BME280;3464;42.728;23.296;2023-05-08T00:41:32;95421.64;;;18.04;56.47
6851;BME280;3464;42.728;23.296;2023-05-08T00:43:59;95423.47;;;17.96;56.46
6851;BME280;3464;42.728;23.296;2023-05-08T00:46:26;95427.75;;;17.67;57.08
6851;BME280;3464;42.728;23.296;2023-05-08T00:48:52;95420.80;;;17.78;56.90
6851;BME280;3464;42.728;23.296;2023-05-08T00:51:19;95431.48;;;17.74;57.03
6851;BME280;3464;42.728;23.296;2023-05-08T00:53:45;95429.86;;;17.70;57.39
6851;BME280;3464;42.728;23.296;2023-05-08T00:56:12;95435.30;;;17.74;56.97
6851;BME280;3464;42.728;23.296;2023-05-08T00:58:39;95433.11;;;17.78;57.07
6851;BME280;3464;42.728;23.296;2023-05-08T01:01:05;95431.48;;;17.99;56.66
6851;BME280;3464;42.728;23.296;2023-05-08T01:03:33;95430.06;;;17.82;57.11
6851;BME280;3464;42.728;23.296;2023-05-08T01:05:59;95437.84;;;17.73;57.91
6851;BME280;3464;42.728;23.296;2023-05-08T01:08:25;95436.17;;;17.73;57.82
6851;BME280;3464;42.728;23.296;2023-05-08T01:10:57;95435.77;;;17.70;57.97
6851;BME280;3464;42.728;23.296;2023-05-08T01:13:31;95436.67;;;17.39;59.21
6851;BME280;3464;42.728;23.296;2023-05-08T01:15:56;95437.72;;;17.26;59.81
6851;BME280;3464;42.728;23.296;2023-05-08T01:18:37;95436.63;;;17.45;59.19
6851;BME280;3464;42.728;23.296;2023-05-08T01:21:12;95435.55;;;17.59;58.83
6851;BME280;3464;42.728;23.296;2023-05-08T01:24:29;95444.99;;;17.52;59.02
6851;BME280;3464;42.728;23.296;2023-05-08T01:29:40;95446.98;;;16.98;61.40
6851;BME280;3464;42.728;23.296;2023-05-08T01:32:11;95444.09;;;16.92;61.38
6851;BME280;3464;42.728;23.296;2023-05-08T01:34:49;95443.75;;;16.87;61.68
6851;BME280;3464;42.728;23.296;2023-05-08T01:37:18;95443.27;;;16.91;62.76
6851;BME280;3464;42.728;23.296;2023-05-08T01:39:45;95440.50;;;16.77;62.98
6851;BME280;3464;42.728;23.296;2023-05-08T01:42:45;95435.39;;;16.78;63.15
6851;BME280;3464;42.728;23.296;2023-05-08T01:45:12;95430.25;;;16.49;64.67
6851;BME280;3464;42.728;23.296;2023-05-08T01:47:36;95429.19;;;16.67;63.87
6851;BME280;3464;42.728;23.296;2023-05-08T01:50:06;95431.18;;;16.77;63.71
6851;BME280;3464;42.728;23.296;2023-05-08T01:52:34;95429.58;;;16.69;63.96
6851;BME280;3464;42.728;23.296;2023-05-08T01:55:03;95426.28;;;16.60;64.40
6851;BME280;3464;42.728;23.296;2023-05-08T01:57:32;95431.34;;;16.63;64.25
6851;BME280;3464;42.728;23.296;2023-05-08T01:59:56;95434.87;;;16.51;64.76
6851;BME280;3464;42.728;23.296;2023-05-08T02:02:24;95434.99;;;16.39;65.71
6851;BME280;3464;42.728;23.296;2023-05-08T02:04:51;95433.93;;;16.58;65.20
6851;BME280;3464;42.728;23.296;2023-05-08T02:07:20;95436.17;;;16.48;65.04
6851;BME280;3464;42.728;23.296;2023-05-08T02:09:45;95433.05;;;16.23;65.98
6851;BME280;3464;42.728;23.296;2023-05-08T02:12:12;95436.41;;;16.25;66.02
6851;BME280;3464;42.728;23.296;2023-05-08T02:14:39;95442.01;;;16.17;66.75
6851;BME280;3464;42.728;23.296;2023-05-08T02:17:05;95445.42;;;16.14;67.28
6851;BME280;3464;42.728;23.296;2023-05-08T02:19:33;95437.47;;;16.05;67.65
6851;BME280;3464;42.728;23.296;2023-05-08T02:22:01;95433.70;;;16.01;67.57
6851;BME280;3464;42.728;23.296;2023-05-08T02:24:28;95437.91;;;16.04;67.52
6851;BME280;3464;42.728;23.296;2023-05-08T02:26:55;95432.32;;;16.11;67.12
6851;BME280;3464;42.728;23.296;2023-05-08T02:29:23;95437.36;;;16.15;67.04
6851;BME280;3464;42.728;23.296;2023-05-08T02:31:50;95437.78;;;16.15;66.53
6851;BME280;3464;42.728;23.296;2023-05-08T02:34:16;95440.97;;;15.94;67.71
6851;BME280;3464;42.728;23.296;2023-05-08T02:36:44;95436.66;;;16.00;67.53
6851;BME280;3464;42.728;23.296;2023-05-08T02:39:11;95439.92;;;16.14;67.00
6851;BME280;3464;42.728;23.296;2023-05-08T02:41:38;95442.56;;;16.02;67.09
6851;BME280;3464;42.728;23.296;2023-05-08T02:44:04;95443.30;;;16.13;66.80
6851;BME280;3464;42.728;23.296;2023-05-08T02:46:38;95432.69;;;16.17;66.52
6851;BME280;3464;42.728;23.296;2023-05-08T02:49:06;95442.95;;;16.06;66.79
6851;BME280;3464;42.728;23.296;2023-05-08T02:51:38;95454.38;;;16.06;66.90
6851;BME280;3464;42.728;23.296;2023-05-08T02:54:08;95445.44;;;16.10;66.89
6851;BME280;3464;42.728;23.296;2023-05-08T02:56:33;95441.55;;;16.18;66.39
6851;BME280;3464;42.728;23.296;2023-05-08T02:59:02;95440.46;;;16.03;66.65
6851;BME280;3464;42.728;23.296;2023-05-08T03:01:40;95441.52;;;16.22;65.98
6851;BME280;3464;42.728;23.296;2023-05-08T03:04:05;95439.38;;;16.25;66.08
6851;BME280;3464;42.728;23.296;2023-05-08T03:06:34;95445.98;;;16.44;65.44
6851;BME280;3464;42.728;23.296;2023-05-08T03:08:59;95448.88;;;16.49;65.36
6851;BME280;3464;42.728;23.296;2023-05-08T03:11:32;95447.54;;;16.54;65.18
6851;BME280;3464;42.728;23.296;2023-05-08T03:13:57;95447.05;;;16.60;65.20
6851;BME280;3464;42.728;23.296;2023-05-08T03:16:24;95443.98;;;16.67;64.88
6851;BME280;3464;42.728;23.296;2023-05-08T03:18:52;95448.52;;;16.78;64.50
6851;BME280;3464;42.728;23.296;2023-05-08T03:21:19;95446.55;;;17.01;63.89
6851;BME280;3464;42.728;23.296;2023-05-08T03:23:50;95449.17;;;17.26;63.19
6851;BME280;3464;42.728;23.296;2023-05-08T03:26:16;95451.72;;;17.26;62.94
6851;BME280;3464;42.728;23.296;2023-05-08T03:28:43;95453.06;;;17.49;62.30
6851;BME280;3464;42.728;23.296;2023-05-08T03:31:09;95451.95;;;17.68;61.82
6851;BME280;3464;42.728;23.296;2023-05-08T03:33:36;95458.00;;;17.86;61.46
6851;BME280;3464;42.728;23.296;2023-05-08T03:36:03;95456.50;;;18.00;60.71
6851;BME280;3464;42.728;23.296;2023-05-08T03:38:30;95451.47;;;18.21;60.00
6851;BME280;3464;42.728;23.296;2023-05-08T03:40:57;95453.39;;;18.55;59.18
6851;BME280;3464;42.728;23.296;2023-05-08T03:43:24;95438.73;;;19.07;57.92
6851;BME280;3464;42.728;23.296;2023-05-08T03:45:51;95440.14;;;21.05;54.37
6851;BME280;3464;42.728;23.296;2023-05-08T03:48:18;95434.28;;;24.06;48.24
6851;BME280;3464;42.728;23.296;2023-05-08T03:50:44;95428.78;;;26.46;44.37
6851;BME280;3464;42.728;23.296;2023-05-08T03:53:11;95432.38;;;27.09;42.03
6851;BME280;3464;42.728;23.296;2023-05-08T03:55:38;95442.87;;;26.73;41.64
6851;BME280;3464;42.728;23.296;2023-05-08T03:58:16;95441.16;;;26.65;40.82
6851;BME280;3464;42.728;23.296;2023-05-08T04:00:50;95439.44;;;27.61;39.74
6851;BME280;3464;42.728;23.296;2023-05-08T04:03:21;95437.75;;;27.61;39.65
6851;BME280;3464;42.728;23.296;2023-05-08T04:05:50;95445.74;;;27.96;38.69
6851;BME280;3464;42.728;23.296;2023-05-08T04:08:18;95442.48;;;28.00;37.85
6851;BME280;3464;42.728;23.296;2023-05-08T04:10:48;95452.00;;;26.46;39.56
6851;BME280;3464;42.728;23.296;2023-05-08T04:13:13;95449.61;;;26.51;39.85
6851;BME280;3464;42.728;23.296;2023-05-08T04:15:45;95451.88;;;26.48;39.89
6851;BME280;3464;42.728;23.296;2023-05-08T04:18:11;95460.72;;;26.70;39.38
6851;BME280;3464;42.728;23.296;2023-05-08T04:20:37;95464.22;;;25.26;41.14
6851;BME280;3464;42.728;23.296;2023-05-08T04:23:03;95466.17;;;25.50;41.01
6851;BME280;3464;42.728;23.296;2023-05-08T04:25:32;95465.26;;;26.05;40.38
6851;BME280;3464;42.728;23.296;2023-05-08T04:27:58;95462.02;;;26.01;39.97
6851;BME280;3464;42.728;23.296;2023-05-08T04:30:25;95458.73;;;25.98;39.87
6851;BME280;3464;42.728;23.296;2023-05-08T04:32:52;95468.54;;;25.54;40.15
6851;BME280;3464;42.728;23.296;2023-05-08T04:35:19;95459.87;;;25.09;41.29
6851;BME280;3464;42.728;23.296;2023-05-08T04:37:46;95458.39;;;25.13;41.39
6851;BME280;3464;42.728;23.296;2023-05-08T04:40:12;95464.45;;;25.49;40.96
6851;BME280;3464;42.728;23.296;2023-05-08T04:42:39;95456.53;;;25.16;41.02
6851;BME280;3464;42.728;23.296;2023-05-08T04:45:07;95451.56;;;24.74;41.67
6851;BME280;3464;42.728;23.296;2023-05-08T04:47:34;95449.38;;;25.95;39.74
6851;BME280;3464;42.728;23.296;2023-05-08T04:50:00;95451.02;;;25.79;39.35
6851;BME280;3464;42.728;23.296;2023-05-08T04:52:28;95449.36;;;25.50;40.32
6851;BME280;3464;42.728;23.296;2023-05-08T04:54:55;95448.63;;;25.01;40.72
6851;BME280;3464;42.728;23.296;2023-05-08T04:57:21;95447.20;;;26.56;39.24
6851;BME280;3464;42.728;23.296;2023-05-08T04:59:48;95442.66;;;27.42;37.48
6851;BME280;3464;42.728;23.296;2023-05-08T05:02:15;95441.47;;;27.88;36.88
6851;BME280;3464;42.728;23.296;2023-05-08T05:04:43;95440.26;;;29.18;35.17
6851;BME280;3464;42.728;23.296;2023-05-08T05:07:11;95439.59;;;29.83;34.16
6851;BME280;3464;42.728;23.296;2023-05-08T05:09:38;95439.29;;;29.47;34.40
6851;BME280;3464;42.728;23.296;2023-05-08T05:12:05;95435.19;;;30.76;32.47
6851;BME280;3464;42.728;23.296;2023-05-08T05:14:33;95435.70;;;31.24;31.58
6851;BME280;3464;42.728;23.296;2023-05-08T05:17:00;95434.00;;;30.74;32.35
6851;BME280;3464;42.728;23.296;2023-05-08T05:19:27;95424.38;;;31.93;31.27
6851;BME280;3464;42.728;23.296;2023-05-08T05:21:54;95426.05;;;33.13;29.85
6851;BME280;3464;42.728;23.296;2023-05-08T05:24:21;95423.09;;;32.27;30.52
6851;BME280;3464;42.728;23.296;2023-05-08T05:26:48;95416.94;;;35.34;27.45
6851;BME280;3464;42.728;23.296;2023-05-08T05:29:15;95427.74;;;37.19;25.64
6851;BME280;3464;42.728;23.296;2023-05-08T05:31:42;95418.76;;;35.43;26.40
6851;BME280;3464;42.728;23.296;2023-05-08T05:34:08;95429.00;;;34.70;27.64
6851;BME280;3464;42.728;23.296;2023-05-08T05:36:35;95423.47;;;35.69;26.74
6851;BME280;3464;42.728;23.296;2023-05-08T05:39:03;95426.09;;;38.65;24.00
6851;BME280;3464;42.728;23.296;2023-05-08T05:41:30;95427.61;;;37.29;24.77
6851;BME280;3464;42.728;23.296;2023-05-08T05:43:57;95420.84;;;37.85;24.67
6851;BME280;3464;42.728;23.296;2023-05-08T05:46:23;95421.73;;;39.50;22.79
6851;BME280;3464;42.728;23.296;2023-05-08T05:48:51;95420.00;;;41.56;21.20
6851;BME280;3464;42.728;23.296;2023-05-08T05:51:18;95417.44;;;41.63;20.86
6851;BME280;3464;42.728;23.296;2023-05-08T05:53:45;95423.11;;;40.73;21.29
6851;BME280;3464;42.728;23.296;2023-05-08T05:56:11;95418.73;;;40.16;21.96
6851;BME280;3464;42.728;23.296;2023-05-08T05:58:38;95416.59;;;40.88;21.31
6851;BME280;3464;42.728;23.296;2023-05-08T06:01:05;95411.53;;;41.06;21.26
6851;BME280;3464;42.728;23.296;2023-05-08T06:03:32;95407.00;;;39.90;21.62
6851;BME280;3464;42.728;23.296;2023-05-08T06:05:59;95408.98;;;38.48;22.35
6851;BME280;3464;42.728;23.296;2023-05-08T06:08:25;95405.48;;;37.32;23.69
6851;BME280;3464;42.728;23.296;2023-05-08T06:10:52;95407.70;;;36.66;24.28
6851;BME280;3464;42.728;23.296;2023-05-08T06:13:19;95404.59;;;36.76;24.14
6851;BME280;3464;42.728;23.296;2023-05-08T06:15:46;95407.22;;;36.48;24.48
6851;BME280;3464;42.728;23.296;2023-05-08T06:18:14;95397.79;;;36.41;24.33
6851;BME280;3464;42.728;23.296;2023-05-08T06:20:40;95401.88;;;35.71;24.89
6851;BME280;3464;42.728;23.296;2023-05-08T06:23:07;95400.55;;;36.40;24.73
6851;BME280;3464;42.728;23.296;2023-05-08T06:25:34;95400.35;;;37.89;23.71
6851;BME280;3464;42.728;23.296;2023-05-08T06:28:00;95409.38;;;37.23;23.97
6851;BME280;3464;42.728;23.296;2023-05-08T06:30:28;95412.05;;;33.03;27.67
6851;BME280;3464;42.728;23.296;2023-05-08T06:32:55;95409.92;;;33.58;27.60
6851;BME280;3464;42.728;23.296;2023-05-08T06:35:21;95414.47;;;31.18;29.74
6851;BME280;3464;42.728;23.296;2023-05-08T06:37:50;95409.48;;;31.52;29.93
6851;BME280;3464;42.728;23.296;2023-05-08T06:40:17;95412.84;;;32.82;28.92
6851;BME280;3464;42.728;23.296;2023-05-08T06:42:44;95405.53;;;34.79;26.75
6851;BME280;3464;42.728;23.296;2023-05-08T06:45:10;95409.52;;;34.48;26.96
6851;BME280;3464;42.728;23.296;2023-05-08T06:47:38;95400.33;;;37.12;25.10
6851;BME280;3464;42.728;23.296;2023-05-08T06:50:08;95406.52;;;38.55;23.47
6851;BME280;3464;42.728;23.296;2023-05-08T06:52:35;95402.83;;;37.68;24.06
6851;BME280;3464;42.728;23.296;2023-05-08T06:55:03;95403.38;;;36.89;24.35
6851;BME280;3464;42.728;23.296;2023-05-08T06:57:30;95406.55;;;36.36;25.15
6851;BME280;3464;42.728;23.296;2023-05-08T06:59:57;95402.00;;;34.75;27.04
6851;BME280;3464;42.728;23.296;2023-05-08T07:02:23;95416.45;;;33.36;28.19
6851;BME280;3464;42.728;23.296;2023-05-08T07:04:50;95418.98;;;33.59;27.79
6851;BME280;3464;42.728;23.296;2023-05-08T07:07:17;95413.65;;;34.08;27.87
6851;BME280;3464;42.728;23.296;2023-05-08T07:09:43;95418.72;;;33.78;28.08
6851;BME280;3464;42.728;23.296;2023-05-08T07:12:10;95428.80;;;32.71;29.51
6851;BME280;3464;42.728;23.296;2023-05-08T07:14:36;95421.64;;;32.17;29.74
6851;BME280;3464;42.728;23.296;2023-05-08T07:17:04;95417.56;;;32.66;29.26
6851;BME280;3464;42.728;23.296;2023-05-08T07:19:31;95422.69;;;32.03;29.60
6851;BME280;3464;42.728;23.296;2023-05-08T07:21:57;95420.10;;;32.32;29.44
6851;BME280;3464;42.728;23.296;2023-05-08T07:24:24;95424.55;;;30.99;31.12
6851;BME280;3464;42.728;23.296;2023-05-08T07:26:50;95416.09;;;30.77;31.63
6851;BME280;3464;42.728;23.296;2023-05-08T07:29:17;95414.92;;;31.97;29.58
6851;BME280;3464;42.728;23.296;2023-05-08T07:31:44;95409.48;;;32.11;29.70
6851;BME280;3464;42.728;23.296;2023-05-08T07:34:11;95411.05;;;33.55;28.55
6851;BME280;3464;42.728;23.296;2023-05-08T07:36:38;95409.84;;;34.75;27.56
6851;BME280;3464;42.728;23.296;2023-05-08T07:39:04;95409.55;;;35.04;26.77
6851;BME280;3464;42.728;23.296;2023-05-08T07:41:31;95415.80;;;34.56;27.13
6851;BME280;3464;42.728;23.296;2023-05-08T07:43:58;95409.52;;;35.39;26.41
6851;BME280;3464;42.728;23.296;2023-05-08T07:46:24;95412.82;;;37.42;24.72
6851;BME280;3464;42.728;23.296;2023-05-08T07:48:51;95422.00;;;37.28;24.80
6851;BME280;3464;42.728;23.296;2023-05-08T07:51:18;95421.77;;;36.65;25.04
6851;BME280;3464;42.728;23.296;2023-05-08T07:53:46;95420.87;;;37.22;24.86
6851;BME280;3464;42.728;23.296;2023-05-08T07:56:12;95413.62;;;37.38;25.28
6851;BME280;3464;42.728;23.296;2023-05-08T07:58:39;95409.53;;;35.84;26.14
6851;BME280;3464;42.728;23.296;2023-05-08T08:01:08;95417.47;;;36.02;26.04
6851;BME280;3464;42.728;23.296;2023-05-08T08:03:34;95409.23;;;36.40;25.69
6851;BME280;3464;42.728;23.296;2023-05-08T08:06:02;95422.67;;;35.59;26.10
6851;BME280;3464;42.728;23.296;2023-05-08T08:08:28;95424.22;;;33.91;27.67
6851;BME280;3464;42.728;23.296;2023-05-08T08:10:56;95416.83;;;34.17;27.90
6851;BME280;3464;42.728;23.296;2023-05-08T08:13:22;95420.91;;;34.52;27.64
6851;BME280;3464;42.728;23.296;2023-05-08T08:15:49;95411.99;;;34.75;27.68
6851;BME280;3464;42.728;23.296;2023-05-08T08:18:16;95405.24;;;34.78;28.07
6851;BME280;3464;42.728;23.296;2023-05-08T08:20:42;95411.94;;;34.18;28.72
6851;BME280;3464;42.728;23.296;2023-05-08T08:23:09;95409.77;;;34.50;28.41
6851;BME280;3464;42.728;23.296;2023-05-08T08:25:36;95416.27;;;33.27;28.99
6851;BME280;3464;42.728;23.296;2023-05-08T08:28:03;95418.97;;;32.47;30.35
6851;BME280;3464;42.728;23.296;2023-05-08T08:30:32;95415.42;;;32.76;29.80
6851;BME280;3464;42.728;23.296;2023-05-08T08:32:59;95404.28;;;33.19;29.49
6851;BME280;3464;42.728;23.296;2023-05-08T08:35:27;95408.86;;;32.50;30.12
6851;BME280;3464;42.728;23.296;2023-05-08T08:37:56;95403.30;;;31.77;31.09
6851;BME280;3464;42.728;23.296;2023-05-08T08:40:23;95403.91;;;33.62;29.28
6851;BME280;3464;42.728;23.296;2023-05-08T08:42:49;95390.31;;;34.22;28.65
6851;BME280;3464;42.728;23.296;2023-05-08T08:45:16;95392.82;;;32.88;29.86
6851;BME280;3464;42.728;23.296;2023-05-08T08:47:43;95390.41;;;33.31;29.62
6851;BME280;3464;42.728;23.296;2023-05-08T08:50:09;95390.22;;;33.48;29.34
6851;BME280;3464;42.728;23.296;2023-05-08T08:55:14;95374.16;;;33.70;29.27
6851;BME280;3464;42.728;23.296;2023-05-08T08:57:38;95371.87;;;33.60;29.55
6851;BME280;3464;42.728;23.296;2023-05-08T09:00:05;95377.03;;;32.33;31.31
6851;BME280;3464;42.728;23.296;2023-05-08T09:02:32;95374.03;;;32.21;31.31
6851;BME280;3464;42.728;23.296;2023-05-08T09:04:59;95366.08;;;32.40;31.38
6851;BME280;3464;42.728;23.296;2023-05-08T09:07:25;95370.31;;;32.18;31.61
6851;BME280;3464;42.728;23.296;2023-05-08T09:09:52;95365.50;;;30.17;34.00
6851;BME280;3464;42.728;23.296;2023-05-08T09:12:18;95351.06;;;29.61;34.80
6851;BME280;3464;42.728;23.296;2023-05-08T09:14:45;95338.89;;;30.27;34.11
6851;BME280;3464;42.728;23.296;2023-05-08T09:17:12;95339.83;;;30.26;33.98
6851;BME280;3464;42.728;23.296;2023-05-08T09:19:38;95348.03;;;28.93;35.91
6851;BME280;3464;42.728;23.296;2023-05-08T09:22:05;95358.37;;;28.22;37.26
6851;BME280;3464;42.728;23.296;2023-05-08T09:30:07;95350.45;;;27.72;38.50
6851;BME280;3464;42.728;23.296;2023-05-08T09:32:36;95357.69;;;27.81;38.05
6851;BME280;3464;42.728;23.296;2023-05-08T09:35:02;95366.87;;;28.17;37.90
6851;BME280;3464;42.728;23.296;2023-05-08T09:37:29;95369.47;;;28.53;37.21
6851;BME280;3464;42.728;23.296;2023-05-08T09:40:18;95363.74;;;29.58;35.68
6851;BME280;3464;42.728;23.296;2023-05-08T09:42:46;95363.19;;;29.60;35.97
6851;BME280;3464;42.728;23.296;2023-05-08T09:47:51;95363.77;;;28.26;38.13
6851;BME280;3464;42.728;23.296;2023-05-08T09:50:17;95352.51;;;27.89;38.59
6851;BME280;3464;42.728;23.296;2023-05-08T09:52:46;95347.53;;;28.52;38.06
6851;BME280;3464;42.728;23.296;2023-05-08T09:55:13;95348.95;;;29.46;36.76
6851;BME280;3464;42.728;23.296;2023-05-08T09:57:56;95346.73;;;29.34;37.09
6851;BME280;3464;42.728;23.296;2023-05-08T10:00:25;95346.17;;;30.22;35.93
6851;BME280;3464;42.728;23.296;2023-05-08T10:02:54;95347.49;;;30.47;35.62
6851;BME280;3464;42.728;23.296;2023-05-08T10:05:23;95337.93;;;31.03;34.81
6851;BME280;3464;42.728;23.296;2023-05-08T10:07:49;95336.09;;;30.55;35.95
6851;BME280;3464;42.728;23.296;2023-05-08T10:10:22;95340.20;;;31.50;34.92
6851;BME280;3464;42.728;23.296;2023-05-08T10:12:48;95333.59;;;31.51;34.77
6851;BME280;3464;42.728;23.296;2023-05-08T10:15:16;95332.10;;;30.94;35.18
6851;BME280;3464;42.728;23.296;2023-05-08T10:17:47;95333.67;;;30.59;35.61
6851;BME280;3464;42.728;23.296;2023-05-08T10:20:11;95331.92;;;30.65;35.40
6851;BME280;3464;42.728;23.296;2023-05-08T10:22:38;95331.61;;;30.69;35.71
6851;BME280;3464;42.728;23.296;2023-05-08T10:25:06;95324.61;;;31.08;35.54
6851;BME280;3464;42.728;23.296;2023-05-08T10:27:52;95323.98;;;30.92;35.79
6851;BME280;3464;42.728;23.296;2023-05-08T10:30:16;95325.12;;;31.37;34.89
6851;BME280;3464;42.728;23.296;2023-05-08T10:32:45;95328.83;;;29.83;36.91
6851;BME280;3464;42.728;23.296;2023-05-08T10:35:13;95328.76;;;30.04;37.20
6851;BME280;3464;42.728;23.296;2023-05-08T10:37:39;95322.52;;;29.47;37.51
6851;BME280;3464;42.728;23.296;2023-05-08T10:40:07;95323.42;;;29.74;37.05
6851;BME280;3464;42.728;23.296;2023-05-08T10:42:35;95323.09;;;29.72;37.12
6851;BME280;3464;42.728;23.296;2023-05-08T10:45:03;95314.84;;;29.98;36.83
6851;BME280;3464;42.728;23.296;2023-05-08T10:47:41;95305.23;;;30.25;36.07
6851;BME280;3464;42.728;23.296;2023-05-08T10:50:15;95309.09;;;29.62;37.88
6851;BME280;3464;42.728;23.296;2023-05-08T10:52:42;95305.03;;;29.90;37.37
6851;BME280;3464;42.728;23.296;2023-05-08T10:55:27;95306.91;;;29.94;36.43
6851;BME280;3464;42.728;23.296;2023-05-08T10:58:03;95297.59;;;29.25;35.85
6851;BME280;3464;42.728;23.296;2023-05-08T11:03:07;95292.45;;;28.49;36.43
6851;BME280;3464;42.728;23.296;2023-05-08T11:05:43;95288.34;;;28.87;36.24
6851;BME280;3464;42.728;23.296;2023-05-08T11:11:04;95267.87;;;29.76;36.31
6851;BME280;3464;42.728;23.296;2023-05-08T11:13:31;95278.33;;;29.49;36.34
6851;BME280;3464;42.728;23.296;2023-05-08T11:15:56;95274.80;;;29.37;36.05
6851;BME280;3464;42.728;23.296;2023-05-08T11:18:23;95267.87;;;29.17;35.67
6851;BME280;3464;42.728;23.296;2023-05-08T11:20:56;95259.38;;;29.15;35.86
6851;BME280;3464;42.728;23.296;2023-05-08T11:23:26;95258.47;;;28.39;36.63
6851;BME280;3464;42.728;23.296;2023-05-08T11:26:12;95260.33;;;27.28;38.72
6851;BME280;3464;42.728;23.296;2023-05-08T11:28:39;95254.86;;;27.70;38.04
6851;BME280;3464;42.728;23.296;2023-05-08T11:31:06;95254.75;;;27.79;38.44
6851;BME280;3464;42.728;23.296;2023-05-08T11:33:35;95255.88;;;28.47;37.59
6851;BME280;3464;42.728;23.296;2023-05-08T11:36:22;95256.53;;;28.15;37.74
6851;BME280;3464;42.728;23.296;2023-05-08T11:41:28;95230.07;;;28.86;36.76
6851;BME280;3464;42.728;23.296;2023-05-08T11:44:18;95231.96;;;28.70;37.14
6851;BME280;3464;42.728;23.296;2023-05-08T11:46:52;95229.30;;;28.65;36.87
6851;BME280;3464;42.728;23.296;2023-05-08T11:49:20;95216.73;;;28.92;36.48
6851;BME280;3464;42.728;23.296;2023-05-08T11:51:47;95209.34;;;30.16;34.90
6851;BME280;3464;42.728;23.296;2023-05-08T11:54:15;95207.13;;;30.05;35.02
6851;BME280;3464;42.728;23.296;2023-05-08T11:56:41;95209.27;;;30.42;35.03
6851;BME280;3464;42.728;23.296;2023-05-08T11:59:10;95203.21;;;30.85;34.29
6851;BME280;3464;42.728;23.296;2023-05-08T12:01:37;95207.78;;;30.99;34.32
6851;BME280;3464;42.728;23.296;2023-05-08T12:04:05;95204.23;;;30.70;33.94
6851;BME280;3464;42.728;23.296;2023-05-08T12:06:34;95206.67;;;30.36;34.28
6851;BME280;3464;42.728;23.296;2023-05-08T12:09:10;95198.03;;;30.48;33.77
6851;BME280;3464;42.728;23.296;2023-05-08T12:11:38;95195.27;;;31.68;32.98
6851;BME280;3464;42.728;23.296;2023-05-08T12:14:04;95199.41;;;31.77;32.84
6851;BME280;3464;42.728;23.296;2023-05-08T12:16:35;95195.41;;;32.12;32.17
6851;BME280;3464;42.728;23.296;2023-05-08T12:19:09;95186.81;;;32.77;31.55
6851;BME280;3464;42.728;23.296;2023-05-08T12:21:35;95178.47;;;33.89;30.05
6851;BME280;3464;42.728;23.296;2023-05-08T12:24:05;95183.63;;;33.16;30.72
6851;BME280;3464;42.728;23.296;2023-05-08T12:26:35;95179.15;;;33.27;30.71
6851;BME280;3464;42.728;23.296;2023-05-08T12:29:01;95183.32;;;32.66;30.99
6851;BME280;3464;42.728;23.296;2023-05-08T12:31:28;95186.92;;;31.70;31.74
6851;BME280;3464;42.728;23.296;2023-05-08T12:33:56;95182.97;;;31.59;32.50
6851;BME280;3464;42.728;23.296;2023-05-08T12:36:24;95180.14;;;32.18;31.92
6851;BME280;3464;42.728;23.296;2023-05-08T12:38:52;95184.73;;;31.70;32.18
6851;BME280;3464;42.728;23.296;2023-05-08T12:41:22;95181.49;;;32.18;31.33
6851;BME280;3464;42.728;23.296;2023-05-08T12:43:49;95181.06;;;30.61;33.02
6851;BME280;3464;42.728;23.296;2023-05-08T12:46:15;95180.70;;;30.36;33.07
6851;BME280;3464;42.728;23.296;2023-05-08T12:48:42;95173.12;;;29.32;34.22
6851;BME280;3464;42.728;23.296;2023-05-08T12:51:09;95175.13;;;28.74;34.91
6851;BME280;3464;42.728;23.296;2023-05-08T12:53:36;95181.53;;;29.55;33.86
6851;BME280;3464;42.728;23.296;2023-05-08T12:56:02;95177.09;;;30.32;32.77
6851;BME280;3464;42.728;23.296;2023-05-08T12:58:30;95184.37;;;30.87;32.33
6851;BME280;3464;42.728;23.296;2023-05-08T13:01:04;95190.00;;;28.92;33.38
6851;BME280;3464;42.728;23.296;2023-05-08T13:03:30;95210.31;;;27.95;39.18
6851;BME280;3464;42.728;23.296;2023-05-08T13:05:57;95212.08;;;26.90;42.41
6851;BME280;3464;42.728;23.296;2023-05-08T13:08:30;95213.48;;;26.33;43.62
6851;BME280;3464;42.728;23.296;2023-05-08T13:10:57;95207.54;;;25.58;45.85
6851;BME280;3464;42.728;23.296;2023-05-08T13:13:25;95210.98;;;25.57;45.68
6851;BME280;3464;42.728;23.296;2023-05-08T13:15:52;95213.36;;;25.36;46.61
6851;BME280;3464;42.728;23.296;2023-05-08T13:18:18;95203.66;;;25.50;46.26
6851;BME280;3464;42.728;23.296;2023-05-08T13:20:45;95210.06;;;25.75;45.90
6851;BME280;3464;42.728;23.296;2023-05-08T13:23:12;95209.86;;;25.88;45.96
6851;BME280;3464;42.728;23.296;2023-05-08T13:25:39;95221.91;;;25.62;46.62
6851;BME280;3464;42.728;23.296;2023-05-08T13:28:06;95224.96;;;24.83;47.86
6851;BME280;3464;42.728;23.296;2023-05-08T13:30:33;95234.12;;;24.98;48.06
6851;BME280;3464;42.728;23.296;2023-05-08T13:33:00;95244.81;;;25.93;46.61
6851;BME280;3464;42.728;23.296;2023-05-08T13:35:28;95239.17;;;25.61;47.03
6851;BME280;3464;42.728;23.296;2023-05-08T13:37:58;95241.73;;;25.70;46.69